Pleasantview, Pennsylvania
Current Conditions -  °F | °C
As of 4:53 PM on Sunday 23 Nov 2014 (Local Time) from KUNV Reporting Station
Clear Clear  
Wind Chill: 52°   Ceiling: Unl
Heat Index: 52°   Visibility: 10mi
Dew Point: 30°   Wind: 0mph
Humidity: 44%   Direction: NA
Pressure: 29.98"   Gusts: NA
Location:  40.4991°N, 77.4687°W
Report Text: KUNV 232153Z 00000KT 10SM SKC 11/M01 A2998
Loading
Personal Weather Stations






























Interactive Weather Map New forecast layout! Learn more

10-Day Weather Forecast

Advertisements
Track Severe Weather on mobile